Time;durP1;ratioP1;P1;durP2;ratioP2;P2;SDS_P1;SDS_P2;PMS_P1;PMS_P2;Temp;Humidity;BMP_temperature;BMP_pressure;BME280_temperature;BME280_humidity;BME280_pressure;Samples;Min_cycle;Max_cycle;Signal;HPM_P1;HPM_P2
2022/01/11 00:01:45;;;;;;;;;17.50;16.00;;;;;;;;5294840;27;8786;-70
2022/01/11 00:04:17;;;;;;;;;10.40;10.40;;;;;;;;5313027;27;8770;-70
2022/01/11 00:06:50;;;;;;;;;11.20;11.20;;;;;;;;5294563;27;8829;-70
2022/01/11 00:09:42;;;;;;;;;11.40;11.00;;;;;;;;5277195;27;8790;-71
2022/01/11 00:12:13;;;;;;;;;16.80;16.80;;;;;;;;5294949;27;8790;-72
2022/01/11 00:14:44;;;;;;;;;3.80;3.80;;;;;;;;5312800;27;8960;-72
2022/01/11 00:17:15;;;;;;;;;5.00;5.00;;;;;;;;5313749;27;8924;-71
2022/01/11 00:19:48;;;;;;;;;9.00;9.00;;;;;;;;5294512;27;8762;-72
2022/01/11 00:22:25;;;;;;;;;10.80;9.40;;;;;;;;5294934;27;8774;-70
2022/01/11 00:24:56;;;;;;;;;11.20;10.80;;;;;;;;5313054;27;8766;-72
2022/01/11 00:27:27;;;;;;;;;13.00;11.75;;;;;;;;5312856;27;8805;-71
2022/01/11 00:30:06;;;;;;;;;9.80;9.20;;;;;;;;5277263;27;11437;-71
2022/01/11 00:32:44;;;;;;;;;8.20;7.20;;;;;;;;5312749;27;8766;-70
2022/01/11 00:35:17;;;;;;;;;9.20;9.20;;;;;;;;5277270;27;8802;-71
2022/01/11 00:37:48;;;;;;;;;10.00;10.00;;;;;;;;5292699;27;8778;-71
2022/01/11 00:40:19;;;;;;;;;11.60;11.20;;;;;;;;5276877;27;9457;-71
2022/01/11 00:42:50;;;;;;;;;9.00;9.00;;;;;;;;5294063;27;8794;-70
2022/01/11 00:45:21;;;;;;;;;12.80;12.60;;;;;;;;5294393;27;8825;-71
2022/01/11 00:47:53;;;;;;;;;14.20;14.20;;;;;;;;5312184;27;8782;-71
2022/01/11 00:50:25;;;;;;;;;10.40;9.20;;;;;;;;5312284;27;8792;-71
2022/01/11 00:52:56;;;;;;;;;7.80;7.80;;;;;;;;5276812;27;9484;-71
2022/01/11 00:55:27;;;;;;;;;11.50;11.50;;;;;;;;5293892;27;8867;-72
2022/01/11 00:57:58;;;;;;;;;9.00;9.00;;;;;;;;5293691;27;8901;-72
2022/01/11 01:00:29;;;;;;;;;11.50;11.50;;;;;;;;5293845;27;8774;-72
2022/01/11 01:03:00;;;;;;;;;5.40;5.40;;;;;;;;5276466;27;8770;-72
2022/01/11 01:05:32;;;;;;;;;14.60;12.60;;;;;;;;5312276;27;8750;-72
2022/01/11 01:08:22;;;;;;;;;4.00;4.00;;;;;;;;5293960;27;8797;-72
2022/01/11 01:10:53;;;;;;;;;10.40;10.40;;;;;;;;5276662;27;9461;-72
2022/01/11 01:13:28;;;;;;;;;12.60;12.00;;;;;;;;5293767;27;8798;-72
2022/01/11 01:16:08;;;;;;;;;6.60;6.60;;;;;;;;5278228;27;8770;-71
2022/01/11 01:19:02;;;;;;;;;6.60;6.60;;;;;;;;5296963;27;8858;-71
2022/01/11 01:21:37;;;;;;;;;8.00;7.60;;;;;;;;5259951;27;8763;-71
2022/01/11 01:24:10;;;;;;;;;4.20;3.80;;;;;;;;5311774;27;9441;-71
2022/01/11 01:26:41;;;;;;;;;8.40;8.40;;;;;;;;5311886;27;8801;-71
2022/01/11 01:29:12;;;;;;;;;6.50;6.50;;;;;;;;5293573;27;8751;-71
2022/01/11 01:31:43;;;;;;;;;10.20;10.20;;;;;;;;5293104;27;8781;-71
2022/01/11 01:34:14;;;;;;;;;4.00;4.00;;;;;;;;5311264;27;9536;-73
2022/01/11 01:36:45;;;;;;;;;7.00;7.00;;;;;;;;5311116;27;11400;-71
2022/01/11 01:39:16;;;;;;;;;6.75;6.75;;;;;;;;5259831;27;11325;-72
2022/01/11 01:41:47;;;;;;;;;13.60;13.60;;;;;;;;5310997;27;11431;-72
2022/01/11 01:44:19;;;;;;;;;1.80;0.80;;;;;;;;5292911;27;8810;-72
2022/01/11 01:46:50;;;;;;;;;16.40;14.60;;;;;;;;5275674;27;8778;-72
2022/01/11 01:49:23;;;;;;;;;13.00;13.00;;;;;;;;5292254;27;8810;-72
2022/01/11 01:51:54;;;;;;;;;15.00;15.00;;;;;;;;5292626;27;8790;-72
2022/01/11 01:54:25;;;;;;;;;21.80;21.80;;;;;;;;5292355;27;8842;-72
2022/01/11 01:56:57;;;;;;;;;15.00;15.00;;;;;;;;5311520;27;8801;-72
2022/01/11 01:59:28;;;;;;;;;12.80;12.20;;;;;;;;5292632;27;8798;-72
2022/01/11 02:01:59;;;;;;;;;12.80;9.80;;;;;;;;5310847;27;8774;-72
2022/01/11 02:04:30;;;;;;;;;4.00;4.00;;;;;;;;5275432;27;8779;-72
2022/01/11 02:07:01;;;;;;;;;3.40;3.40;;;;;;;;5275227;27;8833;-72
2022/01/11 02:09:32;;;;;;;;;8.60;8.60;;;;;;;;5292230;27;8778;-72
2022/01/11 02:12:22;;;;;;;;;10.80;10.80;;;;;;;;5292682;27;8794;-72
2022/01/11 02:14:53;;;;;;;;;6.80;6.80;;;;;;;;5310848;27;8845;-73
2022/01/11 02:17:33;;;;;;;;;9.00;9.00;;;;;;;;5292169;27;8928;-72
2022/01/11 02:20:04;;;;;;;;;9.60;9.60;;;;;;;;5275634;27;8762;-72
2022/01/11 02:22:35;;;;;;;;;7.40;6.80;;;;;;;;5292403;27;8786;-72
2022/01/11 02:25:25;;;;;;;;;3.60;3.60;;;;;;;;5292631;27;8889;-72
2022/01/11 02:27:56;;;;;;;;;4.00;4.00;;;;;;;;5275756;27;9477;-72
2022/01/11 02:30:32;;;;;;;;;10.40;10.00;;;;;;;;5291551;27;8786;-72
2022/01/11 02:33:05;;;;;;;;;7.00;7.00;;;;;;;;5292021;27;8774;-72
2022/01/11 02:35:54;;;;;;;;;7.00;7.00;;;;;;;;5294752;27;8798;-72
2022/01/11 02:38:25;;;;;;;;;6.20;6.20;;;;;;;;5292459;27;8785;-72
2022/01/11 02:40:58;;;;;;;;;4.40;4.00;;;;;;;;5309911;27;8778;-72
2022/01/11 02:43:29;;;;;;;;;8.20;5.60;;;;;;;;5275495;27;8817;-72
2022/01/11 02:46:01;;;;;;;;;7.00;3.60;;;;;;;;5291886;27;8948;-71
2022/01/11 02:48:35;;;;;;;;;11.20;8.60;;;;;;;;5274951;27;8778;-71
2022/01/11 02:51:06;;;;;;;;;7.80;7.80;;;;;;;;5274523;27;8751;-71
2022/01/11 02:53:43;;;;;;;;;6.60;6.60;;;;;;;;5292128;27;8810;-71
2022/01/11 02:56:15;;;;;;;;;8.20;8.20;;;;;;;;5275328;27;8747;-71
2022/01/11 02:59:04;;;;;;;;;0.40;0.40;;;;;;;;5310134;27;8762;-72
2022/01/11 03:01:35;;;;;;;;;6.00;6.00;;;;;;;;5290481;27;8763;-71
2022/01/11 03:04:06;;;;;;;;;1.40;1.40;;;;;;;;5241190;27;8881;-70
2022/01/11 03:06:37;;;;;;;;;6.25;6.00;;;;;;;;5291291;27;8937;-70
2022/01/11 03:09:08;;;;;;;;;2.20;2.20;;;;;;;;5291275;27;10003;-71
2022/01/11 03:11:41;;;;;;;;;0.00;0.00;;;;;;;;5292253;27;8746;-70
2022/01/11 03:14:12;;;;;;;;;5.20;5.20;;;;;;;;5291523;27;8830;-69
2022/01/11 03:16:44;;;;;;;;;4.00;4.00;;;;;;;;5310105;27;8773;-69
2022/01/11 03:19:15;;;;;;;;;4.50;4.50;;;;;;;;5274396;27;8771;-69
2022/01/11 03:21:46;;;;;;;;;5.20;5.20;;;;;;;;5291691;27;8755;-69
2022/01/11 03:24:20;;;;;;;;;6.00;6.00;;;;;;;;5274762;27;8777;-71
2022/01/11 03:26:52;;;;;;;;;6.20;6.20;;;;;;;;5274474;27;8747;-71
2022/01/11 03:29:23;;;;;;;;;6.00;6.00;;;;;;;;5310292;27;9429;-72
2022/01/11 03:32:16;;;;;;;;;6.80;6.80;;;;;;;;5309431;27;8747;-70
2022/01/11 03:34:48;;;;;;;;;4.40;4.40;;;;;;;;5291577;27;8806;-70
2022/01/11 03:37:38;;;;;;;;;4.00;4.00;;;;;;;;5277202;27;9482;-70
2022/01/11 03:40:12;;;;;;;;;6.40;6.40;;;;;;;;5291550;27;9529;-70
2022/01/11 03:42:43;;;;;;;;;10.00;10.00;;;;;;;;5274550;27;8839;-71
2022/01/11 03:45:16;;;;;;;;;4.80;4.80;;;;;;;;5274027;27;8802;-70
2022/01/11 03:47:48;;;;;;;;;5.80;4.40;;;;;;;;5290840;27;8767;-71
2022/01/11 03:50:20;;;;;;;;;5.20;5.20;;;;;;;;5274085;27;8778;-70
2022/01/11 03:53:15;;;;;;;;;3.60;3.60;;;;;;;;5309180;27;9497;-71
2022/01/11 03:56:10;;;;;;;;;2.20;2.20;;;;;;;;5274106;27;8754;-70
2022/01/11 03:58:45;;;;;;;;;4.00;4.00;;;;;;;;5274068;27;8885;-70
2022/01/11 04:01:17;;;;;;;;;3.00;3.00;;;;;;;;5274430;27;8920;-70
2022/01/11 04:03:49;;;;;;;;;8.20;8.20;;;;;;;;5309493;27;9672;-71
2022/01/11 04:06:20;;;;;;;;;3.80;3.80;;;;;;;;5273956;27;8806;-70
2022/01/11 04:08:53;;;;;;;;;7.00;7.00;;;;;;;;5290680;27;8802;-70
2022/01/11 04:11:24;;;;;;;;;5.80;5.60;;;;;;;;5274788;27;8805;-70
2022/01/11 04:13:56;;;;;;;;;43.20;40.00;;;;;;;;5294630;27;8928;-70
2022/01/11 04:16:30;;;;;;;;;38.60;38.60;;;;;;;;5277804;27;8800;-70
2022/01/11 04:19:03;;;;;;;;;50.60;47.60;;;;;;;;5277145;27;8774;-71
2022/01/11 04:21:35;;;;;;;;;8.20;8.20;;;;;;;;5278065;27;8874;-70
2022/01/11 04:24:08;;;;;;;;;21.25;21.25;;;;;;;;5294693;27;8916;-69
2022/01/11 04:26:39;;;;;;;;;5.20;5.20;;;;;;;;5277638;27;8847;-69
2022/01/11 04:29:11;;;;;;;;;13.00;13.00;;;;;;;;5293986;27;8786;-69
2022/01/11 04:31:42;;;;;;;;;4.75;4.75;;;;;;;;5277523;27;8790;-71
2022/01/11 04:34:19;;;;;;;;;3.20;3.20;;;;;;;;5312774;27;8891;-70
2022/01/11 04:36:50;;;;;;;;;0.40;0.40;;;;;;;;5260339;27;9493;-70
2022/01/11 04:39:22;;;;;;;;;12.20;12.20;;;;;;;;5312123;27;8787;-70
2022/01/11 04:41:54;;;;;;;;;8.20;8.20;;;;;;;;5312401;27;8820;-70
2022/01/11 04:44:27;;;;;;;;;8.20;8.20;;;;;;;;5293677;27;8782;-70
2022/01/11 04:46:58;;;;;;;;;8.60;8.60;;;;;;;;5294482;27;8766;-70
2022/01/11 04:49:28;;;;;;;;;12.00;12.00;;;;;;;;5277318;27;8889;-70
2022/01/11 04:52:00;;;;;;;;;12.50;12.50;;;;;;;;5260328;27;8808;-71
2022/01/11 04:54:31;;;;;;;;;10.40;10.40;;;;;;;;5293854;27;11400;-71
2022/01/11 04:57:04;;;;;;;;;4.50;4.50;;;;;;;;5294175;27;8786;-71
2022/01/11 04:59:36;;;;;;;;;5.40;5.40;;;;;;;;5259313;27;11530;-71
2022/01/11 05:02:07;;;;;;;;;14.00;12.40;;;;;;;;5293297;27;8944;-71
2022/01/11 05:04:39;;;;;;;;;25.40;22.20;;;;;;;;5276600;27;8786;-71
2022/01/11 05:07:10;;;;;;;;;13.40;12.80;;;;;;;;5312091;27;8790;-71
2022/01/11 05:09:42;;;;;;;;;6.80;6.80;;;;;;;;5293592;27;8790;-70
2022/01/11 05:12:13;;;;;;;;;9.25;8.50;;;;;;;;5294192;27;8774;-70
2022/01/11 05:14:44;;;;;;;;;6.25;6.25;;;;;;;;5311513;27;11436;-70
2022/01/11 05:17:15;;;;;;;;;10.00;9.20;;;;;;;;5293267;27;11350;-70
2022/01/11 05:19:46;;;;;;;;;6.80;6.80;;;;;;;;5311525;27;8808;-71
2022/01/11 05:22:17;;;;;;;;;6.20;6.20;;;;;;;;5276480;27;8857;-70
2022/01/11 05:24:48;;;;;;;;;6.50;6.50;;;;;;;;5310997;27;8778;-71
2022/01/11 05:27:19;;;;;;;;;11.00;11.00;;;;;;;;5293027;27;8766;-72
2022/01/11 05:29:50;;;;;;;;;9.25;9.00;;;;;;;;5293131;27;8785;-74
2022/01/11 05:32:21;;;;;;;;;9.50;9.00;;;;;;;;5276063;27;8789;-70
2022/01/11 05:34:52;;;;;;;;;1.00;1.00;;;;;;;;5293204;27;9575;-73
2022/01/11 05:37:23;;;;;;;;;11.00;11.00;;;;;;;;5275944;27;8763;-71
2022/01/11 05:39:54;;;;;;;;;6.20;6.20;;;;;;;;5276197;27;8782;-72
2022/01/11 05:42:27;;;;;;;;;9.00;8.20;;;;;;;;5293015;27;8782;-72
2022/01/11 05:45:17;;;;;;;;;2.60;2.60;;;;;;;;5292999;27;9528;-72
2022/01/11 05:47:52;;;;;;;;;5.80;5.80;;;;;;;;5293121;27;8774;-73
2022/01/11 05:50:24;;;;;;;;;5.60;5.60;;;;;;;;5276217;27;8754;-73
2022/01/11 05:53:14;;;;;;;;;4.00;1.00;;;;;;;;5277935;27;8834;-72
2022/01/11 05:55:46;;;;;;;;;6.40;6.40;;;;;;;;5292880;27;8770;-74
2022/01/11 05:58:18;;;;;;;;;5.40;4.80;;;;;;;;5311676;27;8793;-69
2022/01/11 06:00:49;;;;;;;;;1.40;1.40;;;;;;;;5292979;27;8778;-72
2022/01/11 06:03:39;;;;;;;;;4.40;4.20;;;;;;;;5292725;27;8774;-73
2022/01/11 06:06:10;;;;;;;;;1.00;1.00;;;;;;;;5275541;27;8786;-72
2022/01/11 06:08:42;;;;;;;;;0.80;0.80;;;;;;;;5292677;27;8839;-72
2022/01/11 06:11:13;;;;;;;;;1.80;1.80;;;;;;;;5275708;27;8786;-72
2022/01/11 06:13:50;;;;;;;;;4.00;3.00;;;;;;;;5292477;27;8790;-73
2022/01/11 06:16:23;;;;;;;;;6.20;6.00;;;;;;;;5258920;27;8750;-73
2022/01/11 06:19:13;;;;;;;;;4.80;4.80;;;;;;;;5311185;27;8746;-71
2022/01/11 06:30:43;;;;;;;;;4.80;4.80;;;;;;;;5310130;27;8703;-74
2022/01/11 06:33:15;;;;;;;;;3.80;3.80;;;;;;;;5274602;27;8766;-76
2022/01/11 06:35:46;;;;;;;;;4.00;4.00;;;;;;;;5258101;27;8763;-72
2022/01/11 06:38:18;;;;;;;;;10.00;9.00;;;;;;;;5310511;27;8770;-75
2022/01/11 06:40:51;;;;;;;;;5.00;5.00;;;;;;;;5275496;27;8846;-75
2022/01/11 06:43:22;;;;;;;;;25.20;24.40;;;;;;;;5274643;27;8786;-73
2022/01/11 06:45:54;;;;;;;;;23.80;23.00;;;;;;;;5291809;27;8782;-73
2022/01/11 06:48:28;;;;;;;;;10.60;10.60;;;;;;;;5292191;27;8754;-74
2022/01/11 06:55:22;;;;;;;;;3.60;3.60;;;;;;;;5309795;27;8790;-74
2022/01/11 06:57:55;;;;;;;;;6.80;6.80;;;;;;;;5274847;27;8778;-75
2022/01/11 07:00:26;;;;;;;;;3.00;3.00;;;;;;;;5309631;27;8909;-75
2022/01/11 07:03:04;;;;;;;;;3.40;3.40;;;;;;;;5291752;27;9452;-74
2022/01/11 07:05:46;;;;;;;;;1.40;1.40;;;;;;;;5274681;27;8782;-74
2022/01/11 07:08:17;;;;;;;;;1.00;1.00;;;;;;;;5258162;27;8850;-75
2022/01/11 07:10:48;;;;;;;;;2.60;2.60;;;;;;;;5274631;27;8785;-74
2022/01/11 07:13:21;;;;;;;;;5.20;5.20;;;;;;;;5274778;27;8912;-76
2022/01/11 07:15:54;;;;;;;;;3.00;3.00;;;;;;;;5274692;27;8777;-74
2022/01/11 07:18:25;;;;;;;;;7.40;7.00;;;;;;;;5291043;27;8755;-75
2022/01/11 07:21:01;;;;;;;;;2.20;1.00;;;;;;;;5275665;27;8786;-74
2022/01/11 07:23:50;;;;;;;;;7.80;6.20;;;;;;;;5291384;27;8770;-75
2022/01/11 07:26:21;;;;;;;;;1.80;1.80;;;;;;;;5291295;27;8888;-75
2022/01/11 07:28:52;;;;;;;;;0.00;0.00;;;;;;;;5274291;27;9488;-75
2022/01/11 07:31:24;;;;;;;;;4.40;4.40;;;;;;;;5309380;27;8762;-74
2022/01/11 07:33:58;;;;;;;;;1.00;1.00;;;;;;;;5291630;27;8930;-74
2022/01/11 07:36:31;;;;;;;;;10.80;10.80;;;;;;;;5274517;27;8819;-74
2022/01/11 07:39:06;;;;;;;;;4.80;4.00;;;;;;;;5291158;27;8875;-74
2022/01/11 07:41:38;;;;;;;;;11.00;11.00;;;;;;;;5309121;27;8778;-75
2022/01/11 07:44:14;;;;;;;;;3.00;3.00;;;;;;;;5291051;27;8797;-74
2022/01/11 07:46:47;;;;;;;;;19.80;18.80;;;;;;;;5275377;27;9481;-75
2022/01/11 07:49:26;;;;;;;;;6.80;6.40;;;;;;;;5262725;27;8896;-70
2022/01/11 07:51:57;;;;;;;;;5.40;5.40;;;;;;;;5277848;27;8774;-72
2022/01/11 07:58:52;;;;;;;;;3.60;3.60;;;;;;;;5313412;27;8745;-71
2022/01/11 08:01:27;;;;;;;;;0.20;0.20;;;;;;;;5278991;27;8798;-70
2022/01/11 08:03:59;;;;;;;;;1.40;1.40;;;;;;;;5295781;27;8818;-71
2022/01/11 08:06:34;;;;;;;;;5.80;5.80;;;;;;;;5294887;27;8804;-72
2022/01/11 08:09:15;;;;;;;;;2.20;2.20;;;;;;;;5278355;27;8774;-73
2022/01/11 08:11:49;;;;;;;;;9.80;9.40;;;;;;;;5294313;27;9456;-73
2022/01/11 08:14:39;;;;;;;;;0.00;0.00;;;;;;;;5313222;27;8813;-72
2022/01/11 08:21:35;;;;;;;;;1.00;1.00;;;;;;;;5312843;27;8698;-71
2022/01/11 08:24:07;;;;;;;;;1.80;1.80;;;;;;;;5294504;27;8774;-72
2022/01/11 08:26:38;;;;;;;;;5.40;5.40;;;;;;;;5295003;27;8847;-72
2022/01/11 08:29:10;;;;;;;;;4.40;4.40;;;;;;;;5295223;27;8778;-72
2022/01/11 08:31:42;;;;;;;;;0.40;0.40;;;;;;;;5277087;27;8948;-73
2022/01/11 08:34:14;;;;;;;;;9.00;9.00;;;;;;;;5277981;27;8928;-71
2022/01/11 08:37:04;;;;;;;;;0.40;0.00;;;;;;;;5293884;27;11402;-72
2022/01/11 08:39:37;;;;;;;;;7.00;7.00;;;;;;;;5277374;27;8893;-71
2022/01/11 08:42:12;;;;;;;;;6.20;6.20;;;;;;;;5278355;27;8802;-72
2022/01/11 08:44:45;;;;;;;;;9.40;6.40;;;;;;;;5294232;27;8797;-72
2022/01/11 08:47:35;;;;;;;;;6.00;6.00;;;;;;;;5312541;27;8743;-71
2022/01/11 08:50:25;;;;;;;;;3.40;3.40;;;;;;;;5297329;27;8762;-72
2022/01/11 08:53:14;;;;;;;;;1.00;1.00;;;;;;;;5312386;27;8971;-71
2022/01/11 08:55:45;;;;;;;;;7.80;7.80;;;;;;;;5312581;27;8763;-71
2022/01/11 08:58:19;;;;;;;;;7.80;6.80;;;;;;;;5292882;27;8838;-71
2022/01/11 09:00:50;;;;;;;;;3.40;2.20;;;;;;;;5294052;27;8767;-71
2022/01/11 09:03:23;;;;;;;;;3.00;1.00;;;;;;;;5260053;27;8769;-71
2022/01/11 09:05:55;;;;;;;;;4.00;4.00;;;;;;;;5293067;27;10462;-72
2022/01/11 09:08:26;;;;;;;;;1.40;1.40;;;;;;;;5260927;27;8750;-72
2022/01/11 09:10:57;;;;;;;;;10.80;9.60;;;;;;;;5276591;27;8766;-71
2022/01/11 09:13:28;;;;;;;;;101.00;75.33;;;;;;;;5276788;27;8810;-72
2022/01/11 09:15:59;;;;;;;;;21.25;21.25;;;;;;;;5293646;27;8762;-72
2022/01/11 09:18:49;;;;;;;;;0.00;0.00;;;;;;;;5279471;27;9673;-72
2022/01/11 09:21:23;;;;;;;;;5.60;5.60;;;;;;;;5293383;27;8765;-72
2022/01/11 09:23:55;;;;;;;;;4.00;3.20;;;;;;;;5277545;27;8896;-72
2022/01/11 09:26:31;;;;;;;;;3.60;3.60;;;;;;;;5277816;27;8771;-71
2022/01/11 09:29:02;;;;;;;;;4.00;4.00;;;;;;;;5276269;27;8798;-70
2022/01/11 09:31:35;;;;;;;;;4.00;3.80;;;;;;;;5294477;27;8812;-72
2022/01/11 09:34:09;;;;;;;;;2.20;2.20;;;;;;;;5260218;27;8806;-72
2022/01/11 09:36:58;;;;;;;;;3.00;3.00;;;;;;;;5311731;27;8762;-73
2022/01/11 09:39:29;;;;;;;;;0.00;0.00;;;;;;;;5276683;27;8774;-72
2022/01/11 09:42:02;;;;;;;;;1.40;1.40;;;;;;;;5276233;27;8793;-70
2022/01/11 09:44:35;;;;;;;;;1.00;0.00;;;;;;;;5276265;27;8783;-69
2022/01/11 09:47:11;;;;;;;;;3.80;3.80;;;;;;;;5276871;27;8937;-71
2022/01/11 09:49:42;;;;;;;;;1.80;1.80;;;;;;;;5276936;27;8917;-73
2022/01/11 09:52:13;;;;;;;;;0.25;0.25;;;;;;;;5292610;27;8933;-73
2022/01/11 09:54:46;;;;;;;;;1.00;1.00;;;;;;;;5275583;27;8917;-73
2022/01/11 09:57:17;;;;;;;;;3.20;3.20;;;;;;;;5292714;27;8778;-73
2022/01/11 10:00:08;;;;;;;;;2.80;2.40;;;;;;;;5311379;27;9433;-72
2022/01/11 10:02:47;;;;;;;;;0.00;0.00;;;;;;;;5293123;27;8767;-73
2022/01/11 10:05:36;;;;;;;;;0.20;0.20;;;;;;;;5276084;27;9433;-72
2022/01/11 10:08:26;;;;;;;;;5.20;4.80;;;;;;;;5255779;28;8811;-73
2022/01/11 10:11:32;;;;;;;;;4.00;4.00;;;;;;;;5274095;28;8780;-73
2022/01/11 10:14:16;;;;;;;;;1.00;0.60;;;;;;;;5254276;28;8835;-73
2022/01/11 10:17:10;;;;;;;;;4.00;4.00;;;;;;;;5271340;28;8795;-72
2022/01/11 10:20:04;;;;;;;;;3.20;3.20;;;;;;;;5272133;28;8780;-73
2022/01/11 10:22:49;;;;;;;;;2.20;2.20;;;;;;;;5271969;28;8784;-73
2022/01/11 10:25:45;;;;;;;;;1.80;1.80;;;;;;;;5273982;28;8798;-73
2022/01/11 10:28:17;;;;;;;;;0.00;0.00;;;;;;;;5254740;28;8808;-74
2022/01/11 10:30:53;;;;;;;;;0.00;0.00;;;;;;;;5238513;28;9463;-73
2022/01/11 10:33:24;;;;;;;;;3.25;3.25;;;;;;;;5254659;28;8795;-73
2022/01/11 10:35:55;;;;;;;;;0.00;0.00;;;;;;;;5237259;28;9574;-74
2022/01/11 10:39:18;;;;;;;;;0.60;0.60;;;;;;;;5255357;28;8815;-73
2022/01/11 10:41:49;;;;;;;;;3.60;3.20;;;;;;;;5253908;28;8772;-74
2022/01/11 10:44:44;;;;;;;;;2.60;1.40;;;;;;;;5255972;28;8796;-73
2022/01/11 10:47:18;;;;;;;;;0.00;0.00;;;;;;;;5271181;28;9419;-73
2022/01/11 10:49:50;;;;;;;;;0.00;0.00;;;;;;;;5254434;28;8761;-73
2022/01/11 10:52:23;;;;;;;;;1.00;1.00;;;;;;;;5253583;28;8768;-73
2022/01/11 10:55:07;;;;;;;;;4.40;4.40;;;;;;;;5270628;28;8822;-73
2022/01/11 10:57:39;;;;;;;;;0.60;0.60;;;;;;;;5253744;28;8774;-73
2022/01/11 11:00:14;;;;;;;;;0.40;0.40;;;;;;;;5270704;28;8764;-73
2022/01/11 11:02:49;;;;;;;;;2.60;2.60;;;;;;;;5270499;28;8772;-73
2022/01/11 11:05:29;;;;;;;;;2.60;2.60;;;;;;;;5270526;28;8923;-73
2022/01/11 11:08:08;;;;;;;;;0.00;0.00;;;;;;;;5254109;28;8873;-73
2022/01/11 11:10:55;;;;;;;;;1.00;1.00;;;;;;;;5254158;28;8777;-73
2022/01/11 11:13:28;;;;;;;;;0.00;0.00;;;;;;;;5253532;28;8781;-73
2022/01/11 11:16:00;;;;;;;;;0.80;0.80;;;;;;;;5253227;28;8772;-73
2022/01/11 11:18:35;;;;;;;;;0.80;0.80;;;;;;;;5253996;28;8785;-73
2022/01/11 11:21:25;;;;;;;;;22.00;19.00;;;;;;;;5253263;28;8765;-73
2022/01/11 11:24:15;;;;;;;;;9.40;9.40;;;;;;;;5270170;28;8760;-73
2022/01/11 11:26:49;;;;;;;;;4.00;4.00;;;;;;;;5270063;28;8772;-73
2022/01/11 11:29:26;;;;;;;;;3.60;3.60;;;;;;;;5253062;28;8784;-73
2022/01/11 11:32:17;;;;;;;;;20.20;20.20;;;;;;;;5287900;28;8775;-74
2022/01/11 11:34:49;;;;;;;;;4.80;4.80;;;;;;;;5270073;28;8829;-74
2022/01/11 11:41:45;;;;;;;;;3.00;3.00;;;;;;;;5287917;28;8705;-71
2022/01/11 11:44:18;;;;;;;;;0.00;0.00;;;;;;;;5253655;28;8835;-71
2022/01/11 11:46:53;;;;;;;;;3.00;3.00;;;;;;;;5288475;28;8803;-77
2022/01/11 11:49:44;;;;;;;;;9.40;9.40;;;;;;;;5245281;28;8790;-72
2022/01/11 11:52:18;;;;;;;;;3.00;3.00;;;;;;;;5266174;28;8808;-72
2022/01/11 11:54:49;;;;;;;;;4.00;4.00;;;;;;;;5266924;28;9353;-73
2022/01/11 11:57:20;;;;;;;;;0.00;0.00;;;;;;;;5232387;28;8762;-72
2022/01/11 11:59:56;;;;;;;;;0.00;0.00;;;;;;;;5248940;28;8909;-74
2022/01/11 12:06:52;;;;;;;;;0.00;0.00;;;;;;;;5276478;28;8761;-79
2022/01/11 12:09:28;;;;;;;;;2.20;2.20;;;;;;;;5253176;28;9463;-77
2022/01/11 12:12:00;;;;;;;;;1.00;1.00;;;;;;;;5269714;28;8792;-71
2022/01/11 12:18:54;;;;;;;;;3.60;3.60;;;;;;;;5287610;28;9395;-73
2022/01/11 12:21:27;;;;;;;;;0.00;0.00;;;;;;;;5287661;28;8788;-72
2022/01/11 12:23:58;;;;;;;;;2.60;2.60;;;;;;;;5287793;28;8785;-73
2022/01/11 12:26:31;;;;;;;;;2.60;2.60;;;;;;;;5269324;28;8790;-73
2022/01/11 12:29:02;;;;;;;;;0.00;0.00;;;;;;;;5252543;28;8780;-75
2022/01/11 12:31:45;;;;;;;;;0.00;0.00;;;;;;;;5287446;28;8776;-74
2022/01/11 12:34:50;;;;;;;;;0.80;0.80;;;;;;;;5291160;28;9210;-74
2022/01/11 12:37:23;;;;;;;;;0.00;0.00;;;;;;;;5273752;28;8776;-73
2022/01/11 12:39:59;;;;;;;;;0.00;0.00;;;;;;;;5256353;28;8784;-73
2022/01/11 12:42:30;;;;;;;;;1.40;1.40;;;;;;;;5274192;28;8765;-72
2022/01/11 12:47:50;;;;;;;;;0.00;0.00;;;;;;;;5291796;28;8891;-73
2022/01/11 12:50:21;;;;;;;;;0.00;0.00;;;;;;;;5273383;28;9595;-73
2022/01/11 12:52:57;;;;;;;;;6.00;6.00;;;;;;;;5255851;28;8857;-75
2022/01/11 12:55:27;;;;;;;;;1.00;1.00;;;;;;;;5272979;28;8800;-73
2022/01/11 12:58:02;;;;;;;;;2.00;2.00;;;;;;;;5272647;28;8783;-73
2022/01/11 13:04:50;;;;;;;;;3.00;3.00;;;;;;;;5290352;28;8740;-74
2022/01/11 13:07:20;;;;;;;;;0.00;0.00;;;;;;;;5272255;28;8769;-74
2022/01/11 13:09:59;;;;;;;;;7.50;5.00;;;;;;;;5255872;28;8826;-74
2022/01/11 13:12:32;;;;;;;;;1.40;1.40;;;;;;;;5290610;28;8771;-74
2022/01/11 13:15:10;;;;;;;;;4.00;4.00;;;;;;;;5272410;28;8816;-73
2022/01/11 13:17:47;;;;;;;;;4.00;4.00;;;;;;;;5273398;28;8753;-74
2022/01/11 13:20:18;;;;;;;;;0.80;0.80;;;;;;;;5256069;28;8772;-72
2022/01/11 13:23:05;;;;;;;;;3.00;3.00;;;;;;;;5255997;28;8818;-74
2022/01/11 13:29:55;;;;;;;;;2.20;2.20;;;;;;;;5312551;27;8778;-74
2022/01/11 13:36:56;;;;;;;;;3.20;3.20;;;;;;;;5297549;27;9404;-73
2022/01/11 13:39:33;;;;;;;;;3.00;2.60;;;;;;;;5293205;27;8774;-72
2022/01/11 13:42:08;;;;;;;;;0.00;0.00;;;;;;;;5293403;27;8816;-74
2022/01/11 13:49:15;;;;;;;;;7.00;7.00;;;;;;;;5308170;27;8742;-75
2022/01/11 13:56:17;;;;;;;;;0.00;0.00;;;;;;;;5310457;27;8770;-73
2022/01/11 13:58:49;;;;;;;;;1.00;1.00;;;;;;;;5292936;27;8786;-75
2022/01/11 14:01:21;;;;;;;;;5.20;5.20;;;;;;;;5292656;27;8786;-74
2022/01/11 14:04:06;;;;;;;;;0.60;0.60;;;;;;;;5292666;27;8782;-74
2022/01/11 14:06:44;;;;;;;;;1.00;0.00;;;;;;;;5292518;27;8825;-74
2022/01/11 14:09:18;;;;;;;;;0.00;0.00;;;;;;;;5292288;27;8758;-74
2022/01/11 14:12:05;;;;;;;;;0.00;0.00;;;;;;;;5275085;27;9457;-74
2022/01/11 14:14:56;;;;;;;;;1.00;1.00;;;;;;;;5310845;27;8806;-75
2022/01/11 14:17:28;;;;;;;;;3.20;3.20;;;;;;;;5274950;27;8787;-73
2022/01/11 14:20:10;;;;;;;;;3.00;3.00;;;;;;;;5292580;27;8771;-73
2022/01/11 14:31:31;;;;;;;;;0.00;0.00;;;;;;;;5293530;27;8702;-76
2022/01/11 14:34:20;;;;;;;;;7.20;7.20;;;;;;;;5292629;27;8790;-73
2022/01/11 14:36:51;;;;;;;;;4.50;4.50;;;;;;;;5309757;27;8774;-75
2022/01/11 14:39:22;;;;;;;;;0.00;0.00;;;;;;;;5258081;27;8809;-75
2022/01/11 14:41:53;;;;;;;;;4.00;3.50;;;;;;;;5274795;27;8909;-74
2022/01/11 14:44:25;;;;;;;;;3.00;3.00;;;;;;;;5292229;27;8790;-74
2022/01/11 14:47:14;;;;;;;;;23.50;23.50;;;;;;;;5291574;27;8779;-73
2022/01/11 14:49:46;;;;;;;;;5.00;4.50;;;;;;;;5275037;27;8793;-75
2022/01/11 14:52:20;;;;;;;;;4.20;4.20;;;;;;;;5274417;27;8808;-71
2022/01/11 14:54:56;;;;;;;;;7.00;7.00;;;;;;;;5291077;27;8882;-74
2022/01/11 14:57:29;;;;;;;;;21.75;21.75;;;;;;;;5256680;27;8774;-72
2022/01/11 15:00:00;;;;;;;;;3.00;3.00;;;;;;;;5257495;27;8790;-73
2022/01/11 15:02:32;;;;;;;;;1.50;1.50;;;;;;;;5292517;27;8774;-74
2022/01/11 15:05:04;;;;;;;;;3.20;3.20;;;;;;;;5258028;27;8797;-70
2022/01/11 15:07:37;;;;;;;;;1.40;1.40;;;;;;;;5274167;27;8782;-73
2022/01/11 15:10:08;;;;;;;;;4.00;3.80;;;;;;;;5309684;27;8793;-74
2022/01/11 15:12:40;;;;;;;;;2.00;2.00;;;;;;;;5274767;27;8766;-73
2022/01/11 15:15:11;;;;;;;;;1.80;1.80;;;;;;;;5257336;27;9528;-73
2022/01/11 15:17:42;;;;;;;;;0.00;0.00;;;;;;;;5291352;27;8778;-74
2022/01/11 15:20:13;;;;;;;;;0.25;0.25;;;;;;;;5291418;27;8758;-73
2022/01/11 15:22:44;;;;;;;;;11.20;11.00;;;;;;;;5257380;27;8794;-72
2022/01/11 15:25:14;;;;;;;;;7.50;6.75;;;;;;;;5309193;27;8778;-73
2022/01/11 15:27:45;;;;;;;;;0.00;0.00;;;;;;;;5291548;27;8808;-73
2022/01/11 15:30:16;;;;;;;;;0.25;0.25;;;;;;;;5309233;27;9495;-72
2022/01/11 15:33:05;;;;;;;;;3.00;3.00;;;;;;;;5291071;27;9444;-74
2022/01/11 15:39:59;;;;;;;;;0.00;0.00;;;;;;;;5283546;28;11329;-73
2022/01/11 15:42:30;;;;;;;;;3.50;3.50;;;;;;;;5253213;28;8753;-71
2022/01/11 15:45:19;;;;;;;;;2.60;2.60;;;;;;;;5272138;28;8812;-72
2022/01/11 15:48:09;;;;;;;;;2.20;2.20;;;;;;;;5287343;28;8939;-69
2022/01/11 15:50:39;;;;;;;;;0.00;0.00;;;;;;;;5275017;28;8938;-69
2022/01/11 15:57:33;;;;;;;;;1.40;1.40;;;;;;;;5287646;28;8854;-74
2022/01/11 16:00:05;;;;;;;;;7.00;7.00;;;;;;;;5287328;28;8934;-72
2022/01/11 16:02:36;;;;;;;;;6.00;6.00;;;;;;;;5252827;28;11398;-72
2022/01/11 16:05:07;;;;;;;;;9.60;9.60;;;;;;;;5287825;28;8792;-73
2022/01/11 16:07:38;;;;;;;;;0.60;0.60;;;;;;;;5270957;28;8820;-72
2022/01/11 16:10:09;;;;;;;;;1.00;1.00;;;;;;;;5273752;28;8783;-72
2022/01/11 16:12:40;;;;;;;;;0.75;0.75;;;;;;;;5239913;28;8800;-71
2022/01/11 16:15:11;;;;;;;;;7.20;7.20;;;;;;;;5273343;28;8827;-72
2022/01/11 16:17:42;;;;;;;;;27.00;25.67;;;;;;;;5291071;28;8792;-71
2022/01/11 16:20:13;;;;;;;;;28.33;26.67;;;;;;;;5291741;28;9099;-72
2022/01/11 16:22:44;;;;;;;;;9.00;9.00;;;;;;;;5291322;28;8816;-71
2022/01/11 16:25:15;;;;;;;;;7.50;7.50;;;;;;;;5273524;28;11508;-71
2022/01/11 16:27:50;;;;;;;;;12.75;12.25;;;;;;;;5273315;28;8788;-71
2022/01/11 16:30:41;;;;;;;;;35.00;33.00;;;;;;;;5269272;28;8770;-72
2022/01/11 16:33:31;;;;;;;;;18.25;17.75;;;;;;;;5268330;28;8819;-72
2022/01/11 16:36:02;;;;;;;;;6.00;5.20;;;;;;;;5272860;28;8923;-73
2022/01/11 16:38:34;;;;;;;;;3.40;3.40;;;;;;;;5255461;28;8773;-72
2022/01/11 16:43:35;;;;;;;;;10.67;10.67;;;;;;;;5273541;28;8888;-73
2022/01/11 16:46:11;;;;;;;;;3.80;3.80;;;;;;;;5256250;28;8804;-71
2022/01/11 16:48:42;;;;;;;;;1.80;1.80;;;;;;;;5291201;28;8772;-71
2022/01/11 16:51:14;;;;;;;;;1.00;1.00;;;;;;;;5256405;28;8788;-71
2022/01/11 16:53:46;;;;;;;;;4.50;4.50;;;;;;;;5272392;28;8818;-71
2022/01/11 16:56:17;;;;;;;;;0.00;0.00;;;;;;;;5272665;28;8883;-70
2022/01/11 16:58:47;;;;;;;;;0.00;0.00;;;;;;;;5290801;28;9618;-71